createdAt,value
2023-05-05T00:01:03.596Z,74.74
2023-05-05T00:03:30.980Z,75.97
2023-05-05T00:05:58.925Z,76.00
2023-05-05T00:08:26.306Z,77.54
2023-05-05T00:10:54.548Z,76.93
2023-05-05T00:13:22.860Z,78.83
2023-05-05T00:15:54.062Z,81.80
2023-05-05T00:18:21.708Z,82.30
2023-05-05T00:20:49.099Z,83.35
2023-05-05T00:23:18.075Z,83.92
2023-05-05T00:25:45.679Z,86.07
2023-05-05T00:28:14.322Z,88.41
2023-05-05T00:30:42.181Z,88.44
2023-05-05T00:33:11.067Z,93.83
2023-05-05T00:35:39.226Z,93.72
2023-05-05T00:38:07.716Z,96.44
2023-05-05T00:40:35.197Z,97.49
2023-05-05T00:43:02.912Z,97.03
2023-05-05T00:45:31.146Z,97.96
2023-05-05T00:48:01.371Z,98.37
2023-05-05T00:50:31.254Z,99.13
2023-05-05T00:53:04.328Z,100.00
2023-05-05T00:55:35.450Z,100.00
2023-05-05T00:58:06.613Z,100.00
2023-05-05T01:00:34.515Z,100.00
2023-05-05T01:03:02.231Z,100.00
2023-05-05T01:05:58.851Z,100.00
2023-05-05T01:09:19.518Z,100.00
2023-05-05T01:12:14.011Z,100.00
2023-05-05T01:14:56.772Z,100.00
2023-05-05T01:17:41.856Z,100.00
2023-05-05T01:20:57.182Z,100.00
2023-05-05T01:23:56.214Z,100.00
2023-05-05T01:26:52.059Z,100.00
2023-05-05T01:30:10.673Z,100.00
2023-05-05T01:32:55.403Z,100.00
2023-05-05T01:35:42.378Z,100.00
2023-05-05T01:38:26.350Z,100.00
2023-05-05T01:41:39.560Z,100.00
2023-05-05T01:44:09.375Z,100.00
2023-05-05T01:46:38.026Z,100.00
2023-05-05T01:49:08.468Z,100.00
2023-05-05T01:51:38.118Z,100.00
2023-05-05T01:54:09.288Z,100.00
2023-05-05T01:56:41.797Z,100.00
2023-05-05T01:59:11.733Z,100.00
2023-05-05T02:01:44.801Z,100.00
2023-05-05T02:04:17.835Z,100.00
2023-05-05T02:06:50.702Z,100.00
2023-05-05T02:09:19.425Z,100.00
2023-05-05T02:11:47.121Z,100.00
2023-05-05T02:14:19.452Z,100.00
2023-05-05T02:16:49.533Z,100.00
2023-05-05T02:19:21.502Z,100.00
2023-05-05T02:21:51.167Z,100.00
2023-05-05T02:24:18.607Z,100.00
2023-05-05T02:26:51.837Z,100.00
2023-05-05T02:29:28.726Z,100.00
2023-05-05T02:32:19.415Z,100.00
2023-05-05T02:34:50.165Z,100.00
2023-05-05T02:37:27.622Z,100.00
2023-05-05T02:40:06.080Z,100.00
2023-05-05T02:42:43.217Z,100.00
2023-05-05T02:45:20.089Z,100.00
2023-05-05T02:47:49.683Z,100.00
2023-05-05T02:50:18.838Z,100.00
2023-05-05T02:52:54.815Z,100.00
2023-05-05T02:55:24.130Z,100.00
2023-05-05T02:58:22.160Z,100.00
2023-05-05T03:01:42.831Z,100.00
2023-05-05T03:04:28.006Z,100.00
2023-05-05T03:07:06.853Z,100.00
2023-05-05T03:09:45.577Z,100.00
2023-05-05T03:12:27.920Z,100.00
2023-05-05T03:15:11.220Z,100.00
2023-05-05T03:17:46.378Z,100.00
2023-05-05T03:20:16.682Z,100.00
2023-05-05T03:22:48.613Z,100.00
2023-05-05T03:25:16.619Z,100.00
2023-05-05T03:27:44.582Z,100.00
2023-05-05T03:30:16.205Z,100.00
2023-05-05T03:32:49.379Z,100.00
2023-05-05T03:35:16.953Z,100.00
2023-05-05T03:37:44.512Z,100.00
2023-05-05T03:40:15.033Z,100.00
2023-05-05T03:42:42.714Z,100.00
2023-05-05T03:45:10.486Z,100.00
2023-05-05T03:47:39.154Z,100.00
2023-05-05T03:50:09.457Z,100.00
2023-05-05T03:52:37.178Z,100.00
2023-05-05T03:55:06.999Z,100.00
2023-05-05T03:57:35.675Z,100.00
2023-05-05T04:00:03.175Z,100.00
2023-05-05T04:02:43.686Z,100.00
2023-05-05T04:05:14.262Z,100.00
2023-05-05T04:07:42.123Z,100.00
2023-05-05T04:10:10.260Z,100.00
2023-05-05T04:12:37.848Z,100.00
2023-05-05T04:15:06.907Z,100.00
2023-05-05T04:17:35.185Z,100.00
2023-05-05T04:20:07.136Z,100.00
2023-05-05T04:22:34.561Z,100.00
2023-05-05T04:25:02.363Z,100.00
2023-05-05T04:27:30.438Z,100.00
2023-05-05T04:30:00.822Z,100.00
2023-05-05T04:32:29.370Z,100.00
2023-05-05T04:34:59.149Z,100.00
2023-05-05T04:37:31.735Z,100.00
2023-05-05T04:40:00.479Z,100.00
2023-05-05T04:42:28.897Z,100.00
2023-05-05T04:44:56.366Z,100.00
2023-05-05T04:47:26.952Z,100.00
2023-05-05T04:49:57.401Z,100.00
2023-05-05T04:52:24.791Z,100.00
2023-05-05T04:54:52.508Z,100.00
2023-05-05T04:57:20.326Z,100.00
2023-05-05T04:59:47.779Z,100.00
2023-05-05T05:02:15.178Z,100.00
2023-05-05T05:04:42.603Z,100.00
2023-05-05T05:07:09.848Z,100.00
2023-05-05T05:09:38.451Z,100.00
2023-05-05T05:12:07.991Z,100.00
2023-05-05T05:14:40.207Z,100.00
2023-05-05T05:17:08.024Z,100.00
2023-05-05T05:19:36.758Z,100.00
2023-05-05T05:22:05.846Z,100.00
2023-05-05T05:24:36.798Z,100.00
2023-05-05T05:27:09.787Z,100.00
2023-05-05T05:29:40.662Z,100.00
2023-05-05T05:32:08.580Z,100.00
2023-05-05T05:34:36.156Z,100.00
2023-05-05T05:37:04.947Z,100.00
2023-05-05T05:39:33.073Z,100.00
2023-05-05T05:42:03.045Z,100.00
2023-05-05T05:44:30.813Z,100.00
2023-05-05T05:46:58.249Z,100.00
2023-05-05T05:49:26.537Z,100.00
2023-05-05T05:51:54.516Z,100.00
2023-05-05T05:54:21.804Z,100.00
2023-05-05T05:56:49.349Z,100.00
2023-05-05T05:59:17.131Z,100.00
2023-05-05T06:01:45.889Z,100.00
2023-05-05T06:04:13.322Z,100.00
2023-05-05T06:06:41.133Z,100.00
2023-05-05T06:09:08.560Z,100.00
2023-05-05T06:11:37.074Z,100.00
2023-05-05T06:14:04.495Z,100.00
2023-05-05T06:16:33.166Z,100.00
2023-05-05T06:19:09.460Z,100.00
2023-05-05T06:21:37.547Z,100.00
2023-05-05T06:24:06.598Z,100.00
2023-05-05T06:26:37.796Z,100.00
2023-05-05T06:29:06.722Z,100.00
2023-05-05T06:31:36.895Z,100.00
2023-05-05T06:34:05.258Z,100.00
2023-05-05T06:36:32.591Z,100.00
2023-05-05T06:38:59.940Z,100.00
2023-05-05T06:41:28.415Z,100.00
2023-05-05T06:43:56.775Z,100.00
2023-05-05T06:46:24.095Z,100.00
2023-05-05T06:48:52.028Z,100.00
2023-05-05T06:51:23.742Z,100.00
2023-05-05T06:53:51.380Z,100.00
2023-05-05T06:56:20.958Z,100.00
2023-05-05T06:58:51.015Z,100.00
2023-05-05T07:01:19.549Z,100.00
2023-05-05T07:03:47.182Z,100.00
2023-05-05T07:06:15.607Z,100.00
2023-05-05T07:08:56.710Z,100.00
2023-05-05T07:11:27.136Z,100.00
2023-05-05T07:13:55.710Z,100.00
2023-05-05T07:16:27.211Z,100.00
2023-05-05T07:18:55.213Z,100.00
2023-05-05T07:21:22.439Z,100.00
2023-05-05T07:23:49.857Z,100.00
2023-05-05T07:26:17.335Z,100.00
2023-05-05T07:28:44.965Z,100.00
2023-05-05T07:31:12.296Z,99.50
2023-05-05T07:33:39.616Z,98.38
2023-05-05T07:36:08.293Z,99.30
2023-05-05T07:38:37.003Z,95.91
2023-05-05T07:41:12.982Z,94.77
2023-05-05T07:43:44.232Z,93.82
2023-05-05T07:46:12.618Z,93.88
2023-05-05T07:48:41.955Z,91.45
2023-05-05T07:51:10.901Z,88.05
2023-05-05T07:53:38.764Z,86.68
2023-05-05T07:56:08.950Z,86.54
2023-05-05T07:58:37.173Z,85.87
2023-05-05T08:01:06.541Z,86.01
2023-05-05T08:03:35.362Z,84.93
2023-05-05T08:06:09.580Z,85.36
2023-05-05T08:08:37.974Z,84.32
2023-05-05T08:11:07.998Z,80.90
2023-05-05T08:13:35.334Z,81.42
2023-05-05T08:16:03.020Z,79.55
2023-05-05T08:18:30.444Z,78.35
2023-05-05T08:20:58.398Z,78.71
2023-05-05T08:23:25.784Z,77.41
2023-05-05T08:25:53.213Z,76.36
2023-05-05T08:28:20.497Z,74.60
2023-05-05T08:30:47.777Z,73.89
2023-05-05T08:33:15.636Z,71.35
2023-05-05T08:35:44.028Z,69.44
2023-05-05T08:38:12.062Z,68.90
2023-05-05T08:40:41.530Z,66.33
2023-05-05T08:43:09.348Z,65.16
2023-05-05T08:45:41.946Z,61.92
2023-05-05T08:48:10.515Z,59.46
2023-05-05T08:50:42.606Z,61.51
2023-05-05T08:53:16.655Z,60.62
2023-05-05T08:55:55.517Z,61.02
2023-05-05T08:58:26.002Z,62.49
2023-05-05T09:00:56.469Z,62.99
2023-05-05T09:03:28.699Z,64.05
2023-05-05T09:05:56.956Z,64.31
2023-05-05T09:08:26.302Z,63.56
2023-05-05T09:10:55.703Z,65.15
2023-05-05T09:13:23.772Z,66.36
2023-05-05T09:15:51.114Z,67.32
2023-05-05T09:18:18.494Z,68.39
2023-05-05T09:20:46.061Z,68.58
2023-05-05T09:23:18.379Z,69.31
2023-05-05T09:26:02.697Z,70.00
2023-05-05T09:28:30.356Z,71.09
2023-05-05T09:31:15.951Z,71.46
2023-05-05T09:33:44.109Z,70.79
2023-05-05T09:36:12.315Z,70.68
2023-05-05T09:38:39.799Z,70.26
2023-05-05T09:41:07.148Z,70.83
2023-05-05T09:43:52.492Z,70.39
2023-05-05T09:46:19.979Z,72.06
2023-05-05T09:48:49.049Z,71.64
2023-05-05T09:51:18.634Z,70.86
2023-05-05T09:53:46.043Z,69.37
2023-05-05T09:56:13.439Z,69.96
2023-05-05T09:58:41.893Z,69.25
2023-05-05T10:01:23.902Z,68.40
2023-05-05T10:03:54.660Z,68.69
2023-05-05T10:06:48.641Z,69.75
2023-05-05T10:09:17.624Z,69.31
2023-05-05T10:11:47.613Z,69.52
2023-05-05T10:14:18.026Z,70.04
2023-05-05T10:16:55.556Z,70.07
2023-05-05T10:19:25.989Z,70.47
2023-05-05T10:22:08.250Z,71.15
2023-05-05T10:24:52.876Z,71.30
2023-05-05T10:27:23.715Z,71.72
2023-05-05T10:30:09.096Z,72.03
2023-05-05T10:33:00.584Z,72.78
2023-05-05T10:35:40.245Z,74.37
2023-05-05T10:38:13.334Z,74.46
2023-05-05T10:40:48.921Z,74.97
2023-05-05T10:43:17.310Z,75.12
2023-05-05T10:45:45.438Z,76.65
2023-05-05T10:48:32.865Z,77.39
2023-05-05T10:51:41.784Z,78.26
2023-05-05T10:54:28.343Z,78.94
2023-05-05T10:57:01.310Z,81.35
2023-05-05T10:59:38.366Z,88.22
2023-05-05T11:02:27.406Z,95.21
2023-05-05T11:05:23.773Z,100.00
2023-05-05T11:07:52.688Z,100.00
2023-05-05T11:10:24.188Z,100.00
2023-05-05T11:13:13.338Z,100.00
2023-05-05T11:15:41.558Z,100.00
2023-05-05T11:18:38.069Z,100.00
2023-05-05T11:21:17.090Z,100.00
2023-05-05T11:23:55.291Z,100.00
2023-05-05T11:26:51.541Z,100.00
2023-05-05T11:32:16.490Z,100.00
2023-05-05T11:34:50.944Z,100.00
2023-05-05T11:37:24.497Z,100.00
2023-05-05T11:40:37.295Z,100.00
2023-05-05T11:43:10.354Z,100.00
2023-05-05T11:45:40.719Z,100.00
2023-05-05T11:48:28.460Z,100.00
2023-05-05T11:50:55.797Z,100.00
2023-05-05T11:53:28.602Z,100.00
2023-05-05T11:56:22.773Z,100.00
2023-05-05T11:59:10.853Z,100.00
2023-05-05T12:01:42.653Z,100.00
2023-05-05T12:04:17.175Z,100.00
2023-05-05T12:06:49.139Z,100.00
2023-05-05T12:09:23.796Z,100.00
2023-05-05T12:11:58.522Z,100.00
2023-05-05T12:14:26.385Z,100.00
2023-05-05T12:17:18.576Z,100.00
2023-05-05T12:19:55.848Z,100.00
2023-05-05T12:22:30.803Z,100.00
2023-05-05T12:25:09.761Z,100.00
2023-05-05T12:27:37.382Z,100.00
2023-05-05T12:30:18.319Z,100.00
2023-05-05T12:32:46.625Z,100.00
2023-05-05T12:35:20.220Z,100.00
2023-05-05T12:37:49.693Z,100.00
2023-05-05T12:40:47.052Z,100.00
2023-05-05T12:43:39.566Z,100.00
2023-05-05T12:46:15.143Z,100.00
2023-05-05T12:48:51.755Z,100.00
2023-05-05T12:51:25.817Z,100.00
2023-05-05T12:54:12.802Z,100.00
2023-05-05T12:56:44.373Z,100.00
2023-05-05T12:59:45.485Z,100.00
2023-05-05T13:02:14.192Z,100.00
2023-05-05T13:04:54.972Z,100.00
2023-05-05T13:07:23.424Z,100.00
2023-05-05T13:09:51.944Z,100.00
2023-05-05T13:12:23.240Z,100.00
2023-05-05T13:14:58.234Z,100.00
2023-05-05T13:17:26.072Z,100.00
2023-05-05T13:19:53.569Z,100.00
2023-05-05T13:22:20.920Z,100.00
2023-05-05T13:24:52.811Z,100.00
2023-05-05T13:27:31.455Z,100.00
2023-05-05T13:30:01.358Z,100.00
2023-05-05T13:32:33.672Z,100.00
2023-05-05T13:35:01.193Z,100.00
2023-05-05T13:37:30.246Z,100.00
2023-05-05T13:40:00.517Z,100.00
2023-05-05T13:42:29.622Z,100.00
2023-05-05T13:45:00.855Z,100.00
2023-05-05T13:47:29.570Z,100.00
2023-05-05T13:49:57.436Z,100.00
2023-05-05T13:52:29.003Z,100.00
2023-05-05T13:54:58.197Z,100.00
2023-05-05T13:57:32.515Z,100.00
2023-05-05T14:00:04.458Z,100.00
2023-05-05T14:02:35.510Z,100.00
2023-05-05T14:05:04.937Z,100.00
2023-05-05T14:07:33.320Z,100.00
2023-05-05T14:10:02.691Z,100.00
2023-05-05T14:12:32.710Z,100.00
2023-05-05T14:15:00.814Z,100.00
2023-05-05T14:17:28.858Z,100.00
2023-05-05T14:19:59.751Z,100.00
2023-05-05T14:22:27.629Z,100.00
2023-05-05T14:24:55.228Z,100.00
2023-05-05T14:27:29.539Z,100.00
2023-05-05T14:29:56.967Z,100.00
2023-05-05T14:32:30.717Z,100.00
2023-05-05T14:35:06.346Z,100.00
2023-05-05T14:37:36.100Z,100.00
2023-05-05T14:40:10.317Z,100.00
2023-05-05T14:43:03.985Z,100.00
2023-05-05T14:45:46.234Z,100.00
2023-05-05T14:48:23.726Z,100.00
2023-05-05T14:51:09.206Z,100.00
2023-05-05T14:53:43.201Z,100.00
2023-05-05T14:56:24.186Z,100.00
2023-05-05T14:58:54.356Z,100.00
2023-05-05T15:01:22.254Z,100.00
2023-05-05T15:03:58.520Z,100.00
2023-05-05T15:06:30.810Z,100.00
2023-05-05T15:09:02.093Z,100.00
2023-05-05T15:11:37.511Z,100.00
2023-05-05T15:14:20.082Z,100.00
2023-05-05T15:16:48.377Z,100.00
2023-05-05T15:19:16.163Z,100.00
2023-05-05T15:21:53.105Z,100.00
2023-05-05T15:24:24.243Z,100.00
2023-05-05T15:26:54.359Z,100.00
2023-05-05T15:29:23.286Z,100.00
2023-05-05T15:31:51.047Z,100.00
2023-05-05T15:34:18.507Z,100.00
2023-05-05T15:36:53.316Z,100.00
2023-05-05T15:39:23.858Z,100.00
2023-05-05T15:41:51.172Z,100.00
2023-05-05T15:44:18.526Z,100.00
2023-05-05T15:46:50.383Z,100.00
2023-05-05T15:49:19.276Z,100.00
2023-05-05T15:51:48.957Z,100.00
2023-05-05T15:54:16.434Z,100.00
2023-05-05T15:56:43.863Z,100.00
2023-05-05T15:59:11.660Z,100.00
2023-05-05T16:01:40.408Z,100.00
2023-05-05T16:04:07.830Z,100.00
2023-05-05T16:06:35.931Z,100.00
2023-05-05T16:09:06.111Z,100.00
2023-05-05T16:11:33.577Z,100.00
2023-05-05T16:14:03.026Z,100.00
2023-05-05T16:16:31.292Z,100.00
2023-05-05T16:18:58.743Z,100.00
2023-05-05T16:21:27.819Z,100.00
2023-05-05T16:23:56.972Z,100.00
2023-05-05T16:26:24.568Z,100.00
2023-05-05T16:28:52.341Z,100.00
2023-05-05T16:31:19.735Z,100.00
2023-05-05T16:33:49.421Z,100.00
2023-05-05T16:36:22.822Z,100.00
2023-05-05T16:38:52.505Z,100.00
2023-05-05T16:41:22.573Z,100.00
2023-05-05T16:43:50.466Z,100.00
2023-05-05T16:46:18.284Z,100.00
2023-05-05T16:48:46.354Z,100.00
2023-05-05T16:51:14.048Z,100.00
2023-05-05T16:53:41.636Z,100.00
2023-05-05T16:56:14.806Z,100.00
2023-05-05T16:58:43.494Z,100.00
2023-05-05T17:01:13.969Z,100.00
2023-05-05T17:03:44.741Z,100.00
2023-05-05T17:06:14.175Z,100.00
2023-05-05T17:08:41.980Z,100.00
2023-05-05T17:11:11.796Z,100.00
2023-05-05T17:13:40.026Z,100.00
2023-05-05T17:16:08.754Z,100.00
2023-05-05T17:18:39.831Z,100.00
2023-05-05T17:21:08.469Z,100.00
2023-05-05T17:23:37.987Z,100.00
2023-05-05T17:26:12.221Z,100.00
2023-05-05T17:28:42.002Z,100.00
2023-05-05T17:31:12.598Z,100.00
2023-05-05T17:33:42.427Z,100.00
2023-05-05T17:36:14.001Z,100.00
2023-05-05T17:38:43.356Z,100.00
2023-05-05T17:41:10.670Z,100.00
2023-05-05T17:43:38.211Z,100.00
2023-05-05T17:46:05.701Z,100.00
2023-05-05T17:48:33.064Z,100.00
2023-05-05T17:51:04.451Z,100.00
2023-05-05T17:53:31.861Z,100.00
2023-05-05T17:56:01.615Z,100.00
2023-05-05T17:58:29.637Z,100.00
2023-05-05T18:00:58.450Z,100.00
2023-05-05T18:03:26.620Z,100.00
2023-05-05T18:05:54.323Z,100.00
2023-05-05T18:08:21.667Z,100.00
2023-05-05T18:10:49.100Z,100.00
2023-05-05T18:13:21.217Z,100.00
2023-05-05T18:15:52.008Z,100.00
2023-05-05T18:18:19.375Z,100.00
2023-05-05T18:20:47.006Z,100.00
2023-05-05T18:23:14.361Z,100.00
2023-05-05T18:25:41.715Z,100.00
2023-05-05T18:28:09.481Z,100.00
2023-05-05T18:30:36.821Z,100.00
2023-05-05T18:33:06.724Z,100.00
2023-05-05T18:35:35.816Z,100.00
2023-05-05T18:38:03.742Z,100.00
2023-05-05T18:40:31.646Z,100.00
2023-05-05T18:42:59.545Z,100.00
2023-05-05T18:45:26.900Z,100.00
2023-05-05T18:47:55.123Z,100.00
2023-05-05T18:50:22.792Z,100.00
2023-05-05T18:52:51.131Z,100.00
2023-05-05T18:55:21.150Z,100.00
2023-05-05T18:57:50.048Z,100.00
2023-05-05T19:00:19.857Z,100.00
2023-05-05T19:02:47.671Z,100.00
2023-05-05T19:05:15.121Z,100.00
2023-05-05T19:07:45.327Z,100.00
2023-05-05T19:10:14.782Z,100.00
2023-05-05T19:12:42.254Z,100.00
2023-05-05T19:15:11.378Z,100.00
2023-05-05T19:17:39.210Z,100.00
2023-05-05T19:20:12.444Z,100.00
2023-05-05T19:22:44.495Z,100.00
2023-05-05T19:25:14.509Z,100.00
2023-05-05T19:27:42.095Z,100.00
2023-05-05T19:30:11.812Z,100.00
2023-05-05T19:32:39.180Z,100.00
2023-05-05T19:35:08.345Z,100.00
2023-05-05T19:37:37.052Z,100.00
2023-05-05T19:40:08.768Z,100.00
2023-05-05T19:42:36.406Z,100.00
2023-05-05T19:45:04.270Z,100.00
2023-05-05T19:47:32.532Z,100.00
2023-05-05T19:50:01.042Z,100.00
2023-05-05T19:52:28.458Z,100.00
2023-05-05T19:54:56.985Z,100.00
2023-05-05T19:57:25.118Z,100.00
2023-05-05T19:59:52.427Z,100.00
2023-05-05T20:02:22.046Z,100.00
2023-05-05T20:04:51.219Z,100.00
2023-05-05T20:07:20.861Z,100.00
2023-05-05T20:09:48.188Z,100.00
2023-05-05T20:12:17.582Z,100.00
2023-05-05T20:14:46.090Z,100.00
2023-05-05T20:17:16.186Z,100.00
2023-05-05T20:19:44.138Z,100.00
2023-05-05T20:22:13.587Z,100.00
2023-05-05T20:24:43.944Z,100.00
2023-05-05T20:27:11.126Z,100.00
2023-05-05T20:29:39.120Z,100.00
2023-05-05T20:32:07.756Z,100.00
2023-05-05T20:34:35.708Z,100.00
2023-05-05T20:37:03.121Z,100.00
2023-05-05T20:39:30.482Z,100.00
2023-05-05T20:41:57.840Z,100.00
2023-05-05T20:44:25.549Z,100.00
2023-05-05T20:46:53.153Z,100.00
2023-05-05T20:49:20.690Z,100.00
2023-05-05T20:51:47.965Z,100.00
2023-05-05T20:54:15.602Z,100.00
2023-05-05T20:56:44.382Z,100.00
2023-05-05T20:59:13.146Z,100.00
2023-05-05T21:01:40.583Z,100.00
2023-05-05T21:04:08.072Z,100.00
2023-05-05T21:06:37.524Z,100.00
2023-05-05T21:09:05.654Z,100.00
2023-05-05T21:11:33.114Z,100.00
2023-05-05T21:14:00.506Z,100.00
2023-05-05T21:16:27.770Z,100.00
2023-05-05T21:18:55.090Z,100.00
2023-05-05T21:21:23.917Z,100.00
2023-05-05T21:23:51.267Z,100.00
2023-05-05T21:26:19.241Z,100.00
2023-05-05T21:28:46.979Z,100.00
2023-05-05T21:31:22.851Z,100.00
2023-05-05T21:33:50.357Z,100.00
2023-05-05T21:36:19.288Z,100.00
2023-05-05T21:38:47.071Z,100.00
2023-05-05T21:41:14.513Z,100.00
2023-05-05T21:43:44.599Z,100.00
2023-05-05T21:46:12.028Z,100.00
2023-05-05T21:48:42.400Z,100.00
2023-05-05T21:51:09.667Z,100.00
2023-05-05T21:53:37.829Z,100.00
2023-05-05T21:56:08.499Z,100.00
2023-05-05T21:58:36.297Z,100.00
2023-05-05T22:01:03.660Z,100.00
2023-05-05T22:03:31.137Z,100.00
2023-05-05T22:05:58.510Z,100.00
2023-05-05T22:08:25.817Z,100.00
2023-05-05T22:10:53.119Z,100.00
2023-05-05T22:13:20.923Z,100.00
2023-05-05T22:15:48.358Z,100.00
2023-05-05T22:18:16.064Z,100.00
2023-05-05T22:20:44.039Z,100.00
2023-05-05T22:23:12.389Z,100.00
2023-05-05T22:25:39.686Z,100.00
2023-05-05T22:28:06.947Z,100.00
2023-05-05T22:30:34.325Z,100.00
2023-05-05T22:33:01.665Z,100.00
2023-05-05T22:35:29.083Z,100.00
2023-05-05T22:37:56.483Z,100.00
2023-05-05T22:40:23.776Z,100.00
2023-05-05T22:42:51.184Z,100.00
2023-05-05T22:45:18.522Z,100.00
2023-05-05T22:47:46.051Z,100.00
2023-05-05T22:50:13.412Z,100.00
2023-05-05T22:52:40.726Z,100.00
2023-05-05T22:55:09.167Z,100.00
2023-05-05T22:57:36.872Z,100.00
2023-05-05T23:00:05.677Z,100.00
2023-05-05T23:02:33.044Z,100.00
2023-05-05T23:05:01.975Z,100.00
2023-05-05T23:07:29.361Z,100.00
2023-05-05T23:09:57.922Z,100.00
2023-05-05T23:12:26.238Z,100.00
2023-05-05T23:14:53.590Z,100.00
2023-05-05T23:17:21.056Z,100.00
2023-05-05T23:19:49.304Z,100.00
2023-05-05T23:22:16.857Z,100.00
2023-05-05T23:24:44.219Z,100.00
2023-05-05T23:27:13.313Z,100.00
2023-05-05T23:29:40.580Z,100.00
2023-05-05T23:32:08.390Z,100.00
2023-05-05T23:34:35.699Z,100.00
2023-05-05T23:37:05.268Z,100.00
2023-05-05T23:39:36.536Z,100.00
2023-05-05T23:42:03.861Z,100.00
2023-05-05T23:44:31.130Z,100.00
2023-05-05T23:46:58.399Z,100.00
2023-05-05T23:49:26.467Z,100.00
2023-05-05T23:51:54.102Z,100.00
2023-05-05T23:54:21.455Z,100.00
2023-05-05T23:56:49.533Z,100.00
2023-05-05T23:59:16.928Z,100.00
